Time;durP1;ratioP1;P1;durP2;ratioP2;P2;SDS_P1;SDS_P2;PMS_P1;PMS_P2;Temp;Humidity;BMP_temperature;BMP_pressure;BME280_temperature;BME280_humidity;BME280_pressure;Samples;Min_cycle;Max_cycle;Signal;HPM_P1;HPM_P2
2021/03/07 05:01:01;;;;;;;5.90;5.30;;;1.10;42.50;;;;;;6208096;22;942106;-90
2021/03/07 05:04:15;;;;;;;6.65;4.88;;;1.00;42.50;;;;;;6224394;23;20186;-91
2021/03/07 05:06:41;;;;;;;6.35;5.43;;;0.60;41.60;;;;;;6226877;23;20280;-90
2021/03/07 05:09:09;;;;;;;4.78;4.32;;;1.10;42.30;;;;;;6226111;23;20229;-92
2021/03/07 05:11:36;;;;;;;8.30;4.88;;;0.60;42.60;;;;;;6250281;23;20201;-92
2021/03/07 05:14:03;;;;;;;5.40;4.90;;;-0.10;44.30;;;;;;6250749;23;20149;-92
2021/03/07 05:16:30;;;;;;;6.57;5.20;;;-0.10;45.20;;;;;;6251214;23;20161;-92
2021/03/07 05:19:05;;;;;;;7.90;6.45;;;-0.50;44.50;;;;;;6249641;23;20178;-93
2021/03/07 05:21:31;;;;;;;5.63;4.72;;;0.60;44.10;;;;;;6224038;23;20149;-91
2021/03/07 05:24:06;;;;;;;6.30;5.25;;;-0.10;43.80;;;;;;6250282;23;20632;-91
2021/03/07 05:26:32;;;;;;;6.68;5.97;;;0.60;43.90;;;;;;6250574;23;20603;-91
2021/03/07 05:28:57;;;;;;;5.80;5.20;;;0.60;43.70;;;;;;6224711;23;20146;-93
2021/03/07 05:31:23;;;;;;;8.83;5.43;;;0.30;43.50;;;;;;6223831;23;20150;-91
2021/03/07 05:33:49;;;;;;;6.50;5.18;;;1.10;44.00;;;;;;6224280;23;20403;-91
2021/03/07 05:36:16;;;;;;;6.00;5.47;;;0.80;43.40;;;;;;6224194;23;20149;-92
2021/03/07 05:39:03;;;;;;;7.13;5.80;;;0.90;42.90;;;;;;6224323;23;20276;-90
2021/03/07 05:41:30;;;;;;;7.53;6.60;;;0.70;43.20;;;;;;6250578;23;20149;-90
2021/03/07 05:44:15;;;;;;;6.45;5.38;;;1.10;42.00;;;;;;6252413;23;20142;-90
2021/03/07 05:46:41;;;;;;;7.75;6.25;;;1.10;42.90;;;;;;6226249;23;20156;-90
2021/03/07 05:49:07;;;;;;;7.80;6.23;;;1.30;42.30;;;;;;6251279;23;20165;-90
2021/03/07 05:52:29;;;;;;;7.03;6.43;;;1.00;42.10;;;;;;6223589;23;20369;-91
2021/03/07 05:54:56;;;;;;;6.93;5.95;;;1.20;42.40;;;;;;6223923;23;20200;-90
2021/03/07 05:57:26;;;;;;;7.00;6.30;;;0.90;41.10;;;;;;6223212;23;20153;-90
2021/03/07 05:59:52;;;;;;;8.05;6.47;;;1.60;41.60;;;;;;6248796;23;20178;-89
2021/03/07 06:02:18;;;;;;;8.70;7.90;;;1.40;42.20;;;;;;6242507;23;20637;-89
2021/03/07 06:05:36;;;;;;;10.05;7.35;;;1.40;42.00;;;;;;6219269;23;20151;-89
2021/03/07 06:08:02;;;;;;;11.05;7.93;;;1.90;42.50;;;;;;6218301;23;20631;-90
2021/03/07 06:10:48;;;;;;;7.55;6.85;;;1.70;41.30;;;;;;6244917;23;20146;-90
2021/03/07 06:13:14;;;;;;;7.72;6.75;;;1.60;41.90;;;;;;6218778;23;20139;-92
2021/03/07 06:15:45;;;;;;;11.03;8.27;;;1.10;41.10;;;;;;6218984;23;20170;-90
2021/03/07 06:18:47;;;;;;;7.70;6.85;;;2.10;41.20;;;;;;6244190;23;20153;-90
2021/03/07 06:21:34;;;;;;;10.02;7.97;;;1.60;41.40;;;;;;6242267;23;20411;-90
2021/03/07 06:27:37;;;;;;;7.90;6.15;;;1.30;42.60;;;;;;6221735;23;20137;-92
2021/03/07 06:30:17;;;;;;;11.77;6.95;;;1.00;42.60;;;;;;6246084;23;20241;-89
2021/03/07 06:33:34;;;;;;;9.73;6.97;;;1.00;44.10;;;;;;6245536;23;20138;-90
2021/03/07 06:36:21;;;;;;;11.32;7.43;;;1.00;43.50;;;;;;6220574;23;20174;-90
2021/03/07 06:46:17;;;;;;;8.55;7.00;;;1.60;42.30;;;;;;6221101;23;20365;-89
2021/03/07 06:48:56;;;;;;;9.70;6.55;;;1.50;41.40;;;;;;6223385;23;20149;-93
2021/03/07 06:51:27;;;;;;;7.13;6.13;;;0.80;41.00;;;;;;6220568;23;20213;-89
2021/03/07 06:53:53;;;;;;;10.07;8.13;;;1.70;42.80;;;;;;6244633;23;20493;-92
2021/03/07 06:56:53;;;;;;;8.63;6.50;;;0.90;42.30;;;;;;6221217;23;20150;-90
2021/03/07 06:59:24;;;;;;;9.27;7.28;;;0.90;43.60;;;;;;6220471;23;20413;-91
2021/03/07 07:01:54;;;;;;;8.75;7.57;;;1.00;42.50;;;;;;6244456;23;20193;-91
2021/03/07 07:04:50;;;;;;;11.82;7.28;;;1.10;42.90;;;;;;6245404;23;20154;-91
2021/03/07 07:07:17;;;;;;;8.75;6.95;;;1.30;42.40;;;;;;6244102;23;20159;-91
2021/03/07 07:09:56;;;;;;;8.43;7.32;;;1.50;40.90;;;;;;6244494;23;20150;-91
2021/03/07 07:12:24;;;;;;;8.07;6.45;;;1.80;40.30;;;;;;6243746;23;20201;-90
2021/03/07 07:18:11;;;;;;;8.57;7.38;;;2.40;40.50;;;;;;6218201;23;20181;-90
2021/03/07 07:20:54;;;;;;;10.37;7.57;;;1.60;39.80;;;;;;6215986;23;20178;-87
2021/03/07 07:23:20;;;;;;;8.32;5.93;;;1.40;40.40;;;;;;6241237;23;20632;-90
2021/03/07 07:29:08;;;;;;;9.68;8.30;;;1.70;41.00;;;;;;6217055;23;20153;-91
2021/03/07 07:31:39;;;;;;;7.50;6.80;;;1.60;40.50;;;;;;6215912;23;20143;-89
2021/03/07 07:34:17;;;;;;;9.23;7.15;;;1.70;40.70;;;;;;6241434;23;20147;-91
2021/03/07 07:37:37;;;;;;;8.80;7.43;;;1.50;40.30;;;;;;6241304;23;20146;-91
2021/03/07 07:40:03;;;;;;;7.70;6.03;;;2.40;39.90;;;;;;6215761;23;20174;-91
2021/03/07 07:42:35;;;;;;;9.23;7.05;;;2.40;38.70;;;;;;6240837;23;20280;-90
2021/03/07 07:45:10;;;;;;;9.30;8.38;;;2.70;38.40;;;;;;6241335;23;20146;-91
2021/03/07 07:47:58;;;;;;;7.25;6.53;;;3.40;38.70;;;;;;6216227;23;20598;-90
2021/03/07 07:53:17;;;;;;;7.88;6.63;;;3.90;37.40;;;;;;6221207;23;20146;-93
2021/03/07 07:55:53;;;;;;;11.45;7.75;;;3.90;37.80;;;;;;6216137;23;20535;-92
2021/03/07 07:58:47;;;;;;;8.00;7.13;;;4.20;37.00;;;;;;6240698;23;20197;-88
2021/03/07 08:01:14;;;;;;;9.00;6.93;;;4.40;36.80;;;;;;6241712;23;20143;-92
2021/03/07 08:03:40;;;;;;;7.82;6.90;;;4.40;36.20;;;;;;6240809;23;20202;-91
2021/03/07 08:06:10;;;;;;;8.02;7.22;;;4.80;36.10;;;;;;6215684;23;20159;-92
2021/03/07 08:08:41;;;;;;;8.15;7.35;;;5.10;35.70;;;;;;6241372;23;20147;-91
2021/03/07 08:11:32;;;;;;;9.32;8.25;;;5.70;35.40;;;;;;6241294;23;20225;-91
2021/03/07 08:13:59;;;;;;;9.45;8.45;;;5.30;34.70;;;;;;6190982;23;20158;-91
2021/03/07 08:16:40;;;;;;;8.77;8.07;;;4.70;33.70;;;;;;6241047;23;20677;-91
2021/03/07 08:19:41;;;;;;;10.35;9.10;;;5.60;34.60;;;;;;6215473;23;20511;-91
2021/03/07 08:22:08;;;;;;;10.98;9.52;;;5.80;33.90;;;;;;6211233;23;20667;-92
2021/03/07 08:24:56;;;;;;;11.80;10.70;;;4.90;33.10;;;;;;6216352;23;20229;-92
2021/03/07 08:27:33;;;;;;;13.38;11.70;;;5.20;34.70;;;;;;6217705;23;20558;-89
2021/03/07 08:30:00;;;;;;;12.60;10.38;;;5.90;35.40;;;;;;6220926;23;20197;-90
2021/03/07 08:35:41;;;;;;;10.15;9.25;;;5.80;34.40;;;;;;6219831;23;20261;-94
2021/03/07 08:38:12;;;;;;;10.20;9.27;;;6.10;33.40;;;;;;6222098;23;20225;-94
2021/03/07 08:50:27;;;;;;;11.38;9.68;;;7.10;31.70;;;;;;6192987;23;20173;-94
2021/03/07 08:56:15;;;;;;;12.75;10.50;;;7.50;31.10;;;;;;6194148;23;20177;-95
2021/03/07 08:59:36;;;;;;;10.35;9.35;;;7.60;30.40;;;;;;6165180;23;20166;-91
2021/03/07 09:02:03;;;;;;;10.55;9.55;;;7.50;30.90;;;;;;6163465;23;20159;-90
2021/03/07 09:04:34;;;;;;;11.18;9.82;;;7.30;30.00;;;;;;6163422;23;20147;-90
2021/03/07 09:07:07;;;;;;;10.52;9.48;;;7.50;29.50;;;;;;6163582;23;20582;-91
2021/03/07 09:09:34;;;;;;;11.25;10.10;;;7.70;30.00;;;;;;6165156;23;20517;-91
2021/03/07 09:12:03;;;;;;;11.13;10.00;;;7.50;29.50;;;;;;6165207;23;20159;-94
2021/03/07 09:17:51;;;;;;;9.80;8.90;;;8.20;28.80;;;;;;6207915;23;20631;-93
2021/03/07 09:20:47;;;;;;;10.52;9.48;;;8.20;28.90;;;;;;6194166;23;20516;-91
2021/03/07 09:26:51;;;;;;;10.98;9.63;;;8.60;28.70;;;;;;6160343;23;20151;-89
2021/03/07 09:36:05;;;;;;;11.13;10.00;;;8.70;29.00;;;;;;6219881;23;20493;-95
2021/03/07 09:38:50;;;;;;;10.85;9.40;;;8.80;28.40;;;;;;6192879;23;20147;-91
2021/03/07 09:48:13;;;;;;;10.57;9.35;;;9.00;28.40;;;;;;6159730;23;20190;-93
2021/03/07 09:50:41;;;;;;;10.35;9.30;;;9.00;29.10;;;;;;6137228;23;20226;-93
2021/03/07 09:53:24;;;;;;;11.25;10.15;;;8.60;28.90;;;;;;6132535;23;20226;-92
2021/03/07 09:55:50;;;;;;;10.88;9.35;;;9.40;28.80;;;;;;6138269;23;20162;-92
2021/03/07 09:58:17;;;;;;;10.27;9.27;;;9.60;29.00;;;;;;6194900;23;20536;-93
2021/03/07 10:07:40;;;;;;;11.25;10.05;;;10.80;27.40;;;;;;6220950;23;20141;-95
2021/03/07 10:13:30;;;;;;;12.25;11.02;;;10.90;26.80;;;;;;6223938;23;20145;-93
2021/03/07 10:19:19;;;;;;;11.93;10.07;;;11.20;26.10;;;;;;6219095;23;20240;-93
2021/03/07 10:25:07;;;;;;;12.65;11.30;;;11.10;26.80;;;;;;6218912;23;20137;-93
2021/03/07 10:28:03;;;;;;;13.90;11.65;;;11.60;26.90;;;;;;6193016;23;20142;-94
2021/03/07 10:30:38;;;;;;;13.38;11.20;;;11.70;26.30;;;;;;6192919;23;20162;-93
2021/03/07 10:36:54;;;;;;;12.27;11.07;;;11.60;25.60;;;;;;6218870;23;20344;-93
2021/03/07 10:39:20;;;;;;;14.27;11.30;;;11.80;25.70;;;;;;6192887;23;20416;-93
2021/03/07 10:41:45;;;;;;;13.53;12.00;;;11.90;26.30;;;;;;6193915;23;20369;-94
2021/03/07 10:54:58;;;;;;;16.30;14.57;;;11.90;26.50;;;;;;6219161;23;20138;-93
2021/03/07 11:00:46;;;;;;;14.33;12.93;;;11.80;25.80;;;;;;6221031;23;20404;-94
2021/03/07 11:10:23;;;;;;;11.43;10.23;;;12.30;26.10;;;;;;6225458;23;20345;-95
2021/03/07 11:16:11;;;;;;;13.17;11.77;;;12.90;24.20;;;;;;6225226;23;20552;-94
2021/03/07 11:21:59;;;;;;;12.83;11.63;;;13.00;23.70;;;;;;6222447;23;20341;-94
2021/03/07 11:27:47;;;;;;;11.83;10.47;;;13.40;24.50;;;;;;6227850;23;20137;-93
2021/03/07 11:33:35;;;;;;;10.13;9.13;;;13.80;24.10;;;;;;6232224;23;20138;-95
2021/03/07 11:39:23;;;;;;;11.97;10.77;;;14.10;23.30;;;;;;6238252;23;20404;-93
2021/03/07 11:45:13;;;;;;;12.63;11.43;;;14.10;22.30;;;;;;6232413;23;20368;-94
2021/03/07 11:51:01;;;;;;;11.70;10.67;;;14.00;23.00;;;;;;6223822;23;20397;-95
2021/03/07 11:56:50;;;;;;;12.07;10.90;;;13.70;23.40;;;;;;6233906;23;20362;-93
2021/03/07 12:02:38;;;;;;;11.03;10.03;;;14.50;23.30;;;;;;6234730;23;20337;-94
2021/03/07 12:08:56;;;;;;;13.67;12.33;;;14.80;22.30;;;;;;6236529;23;20428;-96
2021/03/07 14:51:35;;;;;;;13.80;12.40;;;13.30;23.90;;;;;;6219383;23;20349;-91
2021/03/07 14:54:01;;;;;;;12.70;11.50;;;13.30;24.40;;;;;;6217606;23;20389;-91
2021/03/07 14:56:42;;;;;;;13.33;12.03;;;13.30;24.40;;;;;;6219107;23;20416;-91
2021/03/07 14:59:08;;;;;;;13.43;11.93;;;13.00;24.60;;;;;;6218578;23;20490;-92
2021/03/07 15:01:34;;;;;;;13.67;12.20;;;12.80;24.90;;;;;;6219832;23;20377;-91
2021/03/07 15:03:59;;;;;;;13.37;12.07;;;13.00;25.00;;;;;;6218401;23;20479;-90
2021/03/07 15:06:34;;;;;;;12.50;11.23;;;12.90;24.70;;;;;;6218146;23;20153;-89
2021/03/07 15:09:00;;;;;;;15.23;13.70;;;13.00;24.50;;;;;;6218293;23;20145;-90
2021/03/07 15:11:52;;;;;;;12.90;11.67;;;13.40;24.70;;;;;;6216769;23;20740;-92
2021/03/07 15:14:17;;;;;;;14.23;12.80;;;13.40;24.00;;;;;;6216395;23;20377;-93
2021/03/07 15:16:55;;;;;;;14.03;12.63;;;13.10;24.30;;;;;;6216349;23;20384;-91
2021/03/07 15:19:21;;;;;;;14.53;12.27;;;13.00;24.70;;;;;;6216543;23;20217;-91
2021/03/07 15:21:47;;;;;;;12.80;11.50;;;12.90;23.70;;;;;;6217331;23;20708;-92
2021/03/07 15:24:13;;;;;;;13.20;11.90;;;13.20;23.90;;;;;;6217333;23;20588;-92
2021/03/07 15:26:46;;;;;;;12.80;11.40;;;12.90;23.60;;;;;;6217071;23;20374;-91
2021/03/07 15:29:12;;;;;;;12.80;11.60;;;13.30;24.00;;;;;;6216582;23;20381;-92
2021/03/07 15:31:45;;;;;;;11.80;10.60;;;13.00;23.20;;;;;;6217483;23;20695;-92
2021/03/07 15:34:10;;;;;;;12.47;11.23;;;13.10;23.40;;;;;;6216432;23;20157;-92
2021/03/07 15:36:43;;;;;;;13.07;11.80;;;13.00;23.00;;;;;;6218024;23;20377;-93
2021/03/07 15:39:09;;;;;;;11.63;10.43;;;13.00;23.20;;;;;;6216433;23;20174;-93
2021/03/07 15:42:04;;;;;;;12.30;11.10;;;12.80;23.10;;;;;;6217976;23;20405;-92
2021/03/07 15:44:30;;;;;;;12.77;11.47;;;13.00;23.20;;;;;;6220347;23;20146;-94
2021/03/07 15:47:33;;;;;;;11.97;10.70;;;12.90;23.50;;;;;;6221216;23;20365;-94
2021/03/07 15:49:59;;;;;;;12.37;11.20;;;13.00;23.70;;;;;;6218013;23;20637;-91
2021/03/07 15:52:32;;;;;;;16.33;13.83;;;12.80;23.40;;;;;;6217940;23;20385;-93
2021/03/07 15:54:58;;;;;;;15.50;13.37;;;12.90;23.60;;;;;;6217236;23;20142;-92
2021/03/07 18:06:55;;;;;;;24.65;20.58;;;10.00;30.80;;;;;;6233647;23;20181;-94
2021/03/07 18:09:25;;;;;;;29.20;25.33;;;9.70;31.00;;;;;;6189911;23;20174;-94
2021/03/07 18:15:14;;;;;;;65.22;52.45;;;9.70;31.20;;;;;;6234465;23;20181;-92
2021/03/07 18:18:15;;;;;;;43.15;36.30;;;9.60;30.80;;;;;;6194507;23;20580;-91
2021/03/07 18:20:41;;;;;;;28.15;24.63;;;9.90;31.60;;;;;;6194920;23;20170;-92
2021/03/07 18:23:06;;;;;;;18.03;15.90;;;9.80;32.20;;;;;;6194612;23;20149;-92
2021/03/07 18:28:54;;;;;;;17.98;14.82;;;9.70;33.50;;;;;;6227489;23;20177;-95
2021/03/07 18:34:42;;;;;;;16.88;14.32;;;9.50;33.80;;;;;;6220672;23;20408;-93
2021/03/07 18:38:00;;;;;;;17.20;14.73;;;9.10;33.00;;;;;;6193598;23;20138;-93
2021/03/07 18:40:26;;;;;;;19.85;15.90;;;9.40;33.10;;;;;;6193802;23;20224;-92
2021/03/07 18:43:23;;;;;;;18.17;15.23;;;9.40;33.20;;;;;;6192287;23;20139;-92
2021/03/07 18:46:14;;;;;;;17.33;14.80;;;9.20;33.80;;;;;;6191354;23;20161;-91
2021/03/07 18:48:39;;;;;;;23.25;19.88;;;9.20;33.80;;;;;;6191487;23;20146;-92
2021/03/07 18:51:06;;;;;;;23.23;19.60;;;9.60;34.20;;;;;;6192798;23;20143;-92
2021/03/07 18:53:33;;;;;;;22.80;18.65;;;9.30;33.90;;;;;;6193871;23;20146;-92
2021/03/07 18:55:59;;;;;;;20.55;17.77;;;9.50;33.60;;;;;;6193950;23;20150;-91
2021/03/07 19:01:47;;;;;;;25.40;19.33;;;9.10;33.40;;;;;;6219972;23;20181;-93
2021/03/07 19:04:56;;;;;;;22.00;19.10;;;8.80;32.80;;;;;;6217949;23;20478;-93
2021/03/07 19:07:22;;;;;;;19.40;17.40;;;9.30;33.40;;;;;;6193033;23;20162;-93
2021/03/07 19:09:48;;;;;;;19.48;15.90;;;9.30;32.60;;;;;;6192726;23;20569;-92
2021/03/07 19:15:35;;;;;;;17.13;15.32;;;9.40;32.80;;;;;;6220207;23;20518;-93
2021/03/07 19:21:23;;;;;;;17.58;15.18;;;9.30;33.50;;;;;;6219547;23;20596;-93
2021/03/07 19:27:11;;;;;;;15.82;14.10;;;9.00;34.10;;;;;;6220672;23;20134;-93
2021/03/07 19:32:59;;;;;;;25.05;20.23;;;9.60;34.40;;;;;;6221136;23;20133;-85
2021/03/07 19:35:48;;;;;;;35.10;31.30;;;9.10;33.40;;;;;;6192875;23;20453;-94
2021/03/07 19:38:14;;;;;;;24.60;20.60;;;8.70;35.20;;;;;;6194262;23;20149;-94
2021/03/07 19:40:40;;;;;;;24.30;20.60;;;8.60;35.20;;;;;;6192439;23;20200;-93
2021/03/07 19:46:29;;;;;;;22.77;19.00;;;8.70;35.40;;;;;;6224497;23;20199;-91
2021/03/07 19:52:16;;;;;;;19.13;16.08;;;8.90;34.80;;;;;;6224879;23;20138;-92
2021/03/07 19:58:05;;;;;;;17.50;15.40;;;8.70;34.90;;;;;;6219791;23;20137;-92
2021/03/07 20:00:48;;;;;;;17.92;16.02;;;9.10;34.80;;;;;;6198601;23;20184;-93
2021/03/07 20:03:14;;;;;;;16.17;14.45;;;8.80;34.70;;;;;;6193252;23;20150;-91
2021/03/07 20:13:17;;;;;;;14.95;13.02;;;9.00;35.00;;;;;;6194837;23;20127;-92
2021/03/07 20:19:04;;;;;;;14.70;12.70;;;9.00;35.10;;;;;;6193416;23;20174;-93
2021/03/07 20:28:30;;;;;;;18.33;14.05;;;9.20;34.70;;;;;;6194219;23;20631;-92
2021/03/07 20:30:57;;;;;;;17.42;14.18;;;9.20;34.50;;;;;;6168773;23;20159;-92
2021/03/07 20:33:23;;;;;;;14.57;13.05;;;9.20;34.60;;;;;;6170306;23;20186;-92
2021/03/07 20:35:49;;;;;;;18.83;14.87;;;9.00;34.20;;;;;;6168133;23;20155;-92
2021/03/07 20:41:37;;;;;;;13.38;12.00;;;9.20;34.20;;;;;;6196185;23;20146;-92
2021/03/07 20:47:25;;;;;;;16.50;13.35;;;9.00;34.60;;;;;;6194163;23;20262;-92
2021/03/07 20:53:13;;;;;;;14.55;11.85;;;9.10;34.80;;;;;;6191954;23;20185;-93
2021/03/07 20:59:04;;;;;;;14.00;12.50;;;9.00;34.70;;;;;;6193038;23;20497;-93
2021/03/07 21:04:52;;;;;;;13.73;12.27;;;9.00;34.50;;;;;;6194572;23;20178;-93
2021/03/07 21:14:15;;;;;;;13.80;12.40;;;9.40;34.60;;;;;;6226032;23;20189;-92
2021/03/07 21:20:05;;;;;;;18.23;12.50;;;9.10;34.50;;;;;;6222157;23;20413;-92
2021/03/07 21:25:53;;;;;;;14.07;12.07;;;9.00;36.10;;;;;;6222197;23;20177;-92
2021/03/07 21:28:25;;;;;;;14.57;12.77;;;8.80;36.30;;;;;;6194965;23;20150;-92
2021/03/07 21:30:51;;;;;;;18.25;13.05;;;8.60;36.60;;;;;;6194251;23;20150;-92
2021/03/07 21:33:17;;;;;;;16.40;12.50;;;8.40;37.00;;;;;;6194482;23;20285;-91
2021/03/07 21:35:49;;;;;;;18.10;15.10;;;8.30;37.10;;;;;;6196717;23;20153;-90
2021/03/07 21:38:15;;;;;;;21.27;16.92;;;8.20;36.60;;;;;;6195273;23;20151;-90
2021/03/07 21:41:35;;;;;;;24.23;18.43;;;8.30;37.10;;;;;;6193070;23;20167;-91
2021/03/07 21:44:00;;;;;;;22.80;16.48;;;8.20;37.40;;;;;;6193163;23;20213;-90
2021/03/07 21:47:13;;;;;;;25.97;17.90;;;8.10;37.00;;;;;;6192870;23;20139;-90
2021/03/07 21:49:39;;;;;;;23.73;18.10;;;8.10;37.70;;;;;;6192762;23;20138;-90
2021/03/07 21:52:04;;;;;;;26.20;19.73;;;8.00;36.60;;;;;;6192536;23;20225;-90
2021/03/07 21:54:46;;;;;;;19.57;15.83;;;8.10;36.40;;;;;;6193555;23;20150;-92
2021/03/07 21:57:11;;;;;;;18.42;14.20;;;8.00;36.60;;;;;;6193352;23;20421;-92
2021/03/07 21:59:50;;;;;;;16.97;12.57;;;8.10;36.60;;;;;;6200983;23;20197;-93
